sensor_id;sensor_type;location;lat;lon;timestamp;P1;durP1;ratioP1;P2;durP2;ratioP2
41799;SDS011;27468;47.460;19.034;2023-04-12T00:01:55;2.78;;;2.05;;
41799;SDS011;27468;47.460;19.034;2023-04-12T00:04:21;2.95;;;2.03;;
41799;SDS011;27468;47.460;19.034;2023-04-12T00:06:46;1.83;;;1.13;;
41799;SDS011;27468;47.460;19.034;2023-04-12T00:09:15;4.70;;;2.00;;
41799;SDS011;27468;47.460;19.034;2023-04-12T00:11:41;1.83;;;1.58;;
41799;SDS011;27468;47.460;19.034;2023-04-12T00:14:06;1.90;;;1.13;;
41799;SDS011;27468;47.460;19.034;2023-04-12T00:16:32;3.85;;;1.95;;
41799;SDS011;27468;47.460;19.034;2023-04-12T00:18:57;3.03;;;1.73;;
41799;SDS011;27468;47.460;19.034;2023-04-12T00:21:23;3.25;;;2.38;;
41799;SDS011;27468;47.460;19.034;2023-04-12T00:23:48;4.72;;;2.35;;
41799;SDS011;27468;47.460;19.034;2023-04-12T00:26:14;2.67;;;1.85;;
41799;SDS011;27468;47.460;19.034;2023-04-12T00:28:40;2.95;;;1.70;;
41799;SDS011;27468;47.460;19.034;2023-04-12T00:31:06;6.13;;;4.10;;
41799;SDS011;27468;47.460;19.034;2023-04-12T00:33:32;1.50;;;1.20;;
41799;SDS011;27468;47.460;19.034;2023-04-12T00:35:59;4.45;;;2.40;;
41799;SDS011;27468;47.460;19.034;2023-04-12T00:38:25;2.05;;;1.35;;
41799;SDS011;27468;47.460;19.034;2023-04-12T00:40:50;2.70;;;2.28;;
41799;SDS011;27468;47.460;19.034;2023-04-12T00:43:16;3.22;;;2.50;;
41799;SDS011;27468;47.460;19.034;2023-04-12T00:45:45;2.70;;;2.08;;
41799;SDS011;27468;47.460;19.034;2023-04-12T00:48:11;4.95;;;3.20;;
41799;SDS011;27468;47.460;19.034;2023-04-12T00:50:38;3.63;;;2.60;;
41799;SDS011;27468;47.460;19.034;2023-04-12T00:53:08;4.45;;;2.58;;
41799;SDS011;27468;47.460;19.034;2023-04-12T00:55:37;4.38;;;2.80;;
41799;SDS011;27468;47.460;19.034;2023-04-12T00:58:07;3.45;;;2.60;;
41799;SDS011;27468;47.460;19.034;2023-04-12T01:00:33;3.85;;;2.35;;
41799;SDS011;27468;47.460;19.034;2023-04-12T01:02:59;5.00;;;3.00;;
41799;SDS011;27468;47.460;19.034;2023-04-12T01:05:26;3.47;;;1.92;;
41799;SDS011;27468;47.460;19.034;2023-04-12T01:10:34;3.70;;;2.45;;
41799;SDS011;27468;47.460;19.034;2023-04-12T01:15:59;3.38;;;2.17;;
41799;SDS011;27468;47.460;19.034;2023-04-12T01:18:32;5.47;;;2.85;;
41799;SDS011;27468;47.460;19.034;2023-04-12T01:21:05;4.65;;;3.90;;
41799;SDS011;27468;47.460;19.034;2023-04-12T01:29:05;4.53;;;3.38;;
41799;SDS011;27468;47.460;19.034;2023-04-12T01:31:33;5.45;;;3.40;;
41799;SDS011;27468;47.460;19.034;2023-04-12T01:34:00;4.30;;;3.50;;
41799;SDS011;27468;47.460;19.034;2023-04-12T01:36:28;5.72;;;3.42;;
41799;SDS011;27468;47.460;19.034;2023-04-12T01:38:54;7.78;;;4.57;;
41799;SDS011;27468;47.460;19.034;2023-04-12T01:41:21;5.03;;;3.70;;
41799;SDS011;27468;47.460;19.034;2023-04-12T01:43:47;4.43;;;3.08;;
41799;SDS011;27468;47.460;19.034;2023-04-12T01:46:14;4.57;;;3.35;;
41799;SDS011;27468;47.460;19.034;2023-04-12T01:48:41;4.47;;;2.65;;
41799;SDS011;27468;47.460;19.034;2023-04-12T01:51:26;5.30;;;3.08;;
41799;SDS011;27468;47.460;19.034;2023-04-12T01:54:16;3.80;;;3.05;;
41799;SDS011;27468;47.460;19.034;2023-04-12T01:56:47;5.05;;;2.92;;
41799;SDS011;27468;47.460;19.034;2023-04-12T01:59:18;7.68;;;3.15;;
41799;SDS011;27468;47.460;19.034;2023-04-12T02:01:45;3.72;;;2.75;;
41799;SDS011;27468;47.460;19.034;2023-04-12T02:04:12;5.03;;;3.38;;
41799;SDS011;27468;47.460;19.034;2023-04-12T02:06:39;4.65;;;3.47;;
41799;SDS011;27468;47.460;19.034;2023-04-12T02:09:06;5.38;;;3.17;;
41799;SDS011;27468;47.460;19.034;2023-04-12T02:11:32;4.03;;;2.58;;
41799;SDS011;27468;47.460;19.034;2023-04-12T02:13:57;4.90;;;2.90;;
41799;SDS011;27468;47.460;19.034;2023-04-12T02:16:23;3.75;;;2.80;;
41799;SDS011;27468;47.460;19.034;2023-04-12T02:18:49;2.35;;;2.15;;
41799;SDS011;27468;47.460;19.034;2023-04-12T02:21:15;4.50;;;2.28;;
41799;SDS011;27468;47.460;19.034;2023-04-12T02:23:40;4.20;;;2.70;;
41799;SDS011;27468;47.460;19.034;2023-04-12T02:26:08;3.38;;;2.60;;
41799;SDS011;27468;47.460;19.034;2023-04-12T02:28:37;2.42;;;1.70;;
41799;SDS011;27468;47.460;19.034;2023-04-12T02:31:03;6.30;;;3.10;;
41799;SDS011;27468;47.460;19.034;2023-04-12T02:33:29;4.60;;;2.60;;
41799;SDS011;27468;47.460;19.034;2023-04-12T02:35:55;3.15;;;2.47;;
41799;SDS011;27468;47.460;19.034;2023-04-12T02:38:26;3.15;;;2.15;;
41799;SDS011;27468;47.460;19.034;2023-04-12T02:40:52;3.42;;;2.15;;
41799;SDS011;27468;47.460;19.034;2023-04-12T02:43:18;3.67;;;2.20;;
41799;SDS011;27468;47.460;19.034;2023-04-12T02:45:43;3.33;;;2.10;;
41799;SDS011;27468;47.460;19.034;2023-04-12T02:48:09;4.55;;;2.15;;
41799;SDS011;27468;47.460;19.034;2023-04-12T02:50:35;5.03;;;2.55;;
41799;SDS011;27468;47.460;19.034;2023-04-12T02:53:01;4.47;;;2.63;;
41799;SDS011;27468;47.460;19.034;2023-04-12T02:55:26;5.72;;;2.95;;
41799;SDS011;27468;47.460;19.034;2023-04-12T02:57:52;8.35;;;2.50;;
41799;SDS011;27468;47.460;19.034;2023-04-12T03:00:17;4.90;;;3.30;;
41799;SDS011;27468;47.460;19.034;2023-04-12T03:02:44;4.80;;;3.10;;
41799;SDS011;27468;47.460;19.034;2023-04-12T03:05:09;4.80;;;3.20;;
41799;SDS011;27468;47.460;19.034;2023-04-12T03:07:36;3.97;;;2.88;;
41799;SDS011;27468;47.460;19.034;2023-04-12T03:10:02;5.20;;;3.08;;
41799;SDS011;27468;47.460;19.034;2023-04-12T03:12:31;3.67;;;2.80;;
41799;SDS011;27468;47.460;19.034;2023-04-12T03:14:56;4.15;;;2.92;;
41799;SDS011;27468;47.460;19.034;2023-04-12T03:17:21;4.68;;;2.40;;
41799;SDS011;27468;47.460;19.034;2023-04-12T03:19:48;3.53;;;2.33;;
41799;SDS011;27468;47.460;19.034;2023-04-12T03:22:13;4.30;;;2.72;;
41799;SDS011;27468;47.460;19.034;2023-04-12T03:24:38;4.13;;;2.22;;
41799;SDS011;27468;47.460;19.034;2023-04-12T03:27:06;3.33;;;1.63;;
41799;SDS011;27468;47.460;19.034;2023-04-12T03:29:32;3.38;;;2.92;;
41799;SDS011;27468;47.460;19.034;2023-04-12T03:31:57;4.15;;;2.40;;
41799;SDS011;27468;47.460;19.034;2023-04-12T03:34:24;3.83;;;2.42;;
41799;SDS011;27468;47.460;19.034;2023-04-12T03:36:52;5.03;;;2.95;;
41799;SDS011;27468;47.460;19.034;2023-04-12T03:39:18;4.18;;;2.83;;
41799;SDS011;27468;47.460;19.034;2023-04-12T03:41:43;3.70;;;2.50;;
41799;SDS011;27468;47.460;19.034;2023-04-12T03:44:09;5.35;;;2.90;;
41799;SDS011;27468;47.460;19.034;2023-04-12T03:46:34;4.95;;;3.90;;
41799;SDS011;27468;47.460;19.034;2023-04-12T03:49:00;4.85;;;2.83;;
41799;SDS011;27468;47.460;19.034;2023-04-12T03:51:27;5.32;;;3.03;;
41799;SDS011;27468;47.460;19.034;2023-04-12T03:53:54;4.65;;;3.25;;
41799;SDS011;27468;47.460;19.034;2023-04-12T03:56:20;4.45;;;3.30;;
41799;SDS011;27468;47.460;19.034;2023-04-12T03:58:46;4.65;;;3.10;;
41799;SDS011;27468;47.460;19.034;2023-04-12T04:01:11;5.28;;;3.58;;
41799;SDS011;27468;47.460;19.034;2023-04-12T04:03:40;6.05;;;3.53;;
41799;SDS011;27468;47.460;19.034;2023-04-12T04:06:06;5.88;;;3.40;;
41799;SDS011;27468;47.460;19.034;2023-04-12T04:08:32;4.80;;;3.45;;
41799;SDS011;27468;47.460;19.034;2023-04-12T04:10:58;4.53;;;3.40;;
41799;SDS011;27468;47.460;19.034;2023-04-12T04:13:24;5.13;;;3.30;;
41799;SDS011;27468;47.460;19.034;2023-04-12T04:15:54;6.03;;;3.53;;
41799;SDS011;27468;47.460;19.034;2023-04-12T04:18:29;5.53;;;3.40;;
41799;SDS011;27468;47.460;19.034;2023-04-12T04:20:56;7.90;;;3.50;;
41799;SDS011;27468;47.460;19.034;2023-04-12T04:23:22;4.95;;;3.40;;
41799;SDS011;27468;47.460;19.034;2023-04-12T04:25:48;5.90;;;3.35;;
41799;SDS011;27468;47.460;19.034;2023-04-12T04:28:13;5.28;;;3.00;;
41799;SDS011;27468;47.460;19.034;2023-04-12T04:30:40;4.00;;;3.10;;
41799;SDS011;27468;47.460;19.034;2023-04-12T04:33:06;4.55;;;2.70;;
41799;SDS011;27468;47.460;19.034;2023-04-12T04:35:31;5.07;;;2.90;;
41799;SDS011;27468;47.460;19.034;2023-04-12T04:37:57;5.65;;;3.55;;
41799;SDS011;27468;47.460;19.034;2023-04-12T04:40:24;4.75;;;2.92;;
41799;SDS011;27468;47.460;19.034;2023-04-12T04:42:50;4.00;;;2.90;;
41799;SDS011;27468;47.460;19.034;2023-04-12T04:45:22;5.18;;;3.60;;
41799;SDS011;27468;47.460;19.034;2023-04-12T04:47:53;3.50;;;2.80;;
41799;SDS011;27468;47.460;19.034;2023-04-12T04:50:22;4.28;;;3.00;;
41799;SDS011;27468;47.460;19.034;2023-04-12T04:52:49;3.60;;;2.80;;
41799;SDS011;27468;47.460;19.034;2023-04-12T04:55:15;3.83;;;2.38;;
41799;SDS011;27468;47.460;19.034;2023-04-12T04:57:45;3.90;;;2.17;;
41799;SDS011;27468;47.460;19.034;2023-04-12T05:00:11;6.30;;;2.72;;
41799;SDS011;27468;47.460;19.034;2023-04-12T05:02:37;4.45;;;2.15;;
41799;SDS011;27468;47.460;19.034;2023-04-12T05:05:06;3.15;;;2.15;;
41799;SDS011;27468;47.460;19.034;2023-04-12T05:07:33;2.20;;;1.92;;
41799;SDS011;27468;47.460;19.034;2023-04-12T05:09:58;2.63;;;1.70;;
41799;SDS011;27468;47.460;19.034;2023-04-12T05:12:23;3.92;;;1.80;;
41799;SDS011;27468;47.460;19.034;2023-04-12T05:14:49;2.30;;;1.52;;
41799;SDS011;27468;47.460;19.034;2023-04-12T05:17:15;2.88;;;2.20;;
41799;SDS011;27468;47.460;19.034;2023-04-12T05:19:40;3.38;;;2.40;;
41799;SDS011;27468;47.460;19.034;2023-04-12T05:22:07;3.22;;;2.35;;
41799;SDS011;27468;47.460;19.034;2023-04-12T05:24:33;2.92;;;2.00;;
41799;SDS011;27468;47.460;19.034;2023-04-12T05:26:58;2.67;;;2.20;;
41799;SDS011;27468;47.460;19.034;2023-04-12T05:29:23;4.75;;;2.50;;
41799;SDS011;27468;47.460;19.034;2023-04-12T05:31:49;4.22;;;2.30;;
41799;SDS011;27468;47.460;19.034;2023-04-12T05:34:14;2.97;;;1.83;;
41799;SDS011;27468;47.460;19.034;2023-04-12T05:36:40;3.33;;;2.20;;
41799;SDS011;27468;47.460;19.034;2023-04-12T05:39:05;2.58;;;1.88;;
41799;SDS011;27468;47.460;19.034;2023-04-12T05:41:31;3.40;;;1.85;;
41799;SDS011;27468;47.460;19.034;2023-04-12T05:43:56;2.40;;;1.60;;
41799;SDS011;27468;47.460;19.034;2023-04-12T05:46:21;3.47;;;1.60;;
41799;SDS011;27468;47.460;19.034;2023-04-12T05:48:47;3.72;;;1.90;;
41799;SDS011;27468;47.460;19.034;2023-04-12T05:51:12;2.97;;;1.55;;
41799;SDS011;27468;47.460;19.034;2023-04-12T05:53:38;3.40;;;2.03;;
41799;SDS011;27468;47.460;19.034;2023-04-12T05:56:03;2.03;;;1.83;;
41799;SDS011;27468;47.460;19.034;2023-04-12T05:58:29;3.85;;;1.92;;
41799;SDS011;27468;47.460;19.034;2023-04-12T06:00:55;2.97;;;2.10;;
41799;SDS011;27468;47.460;19.034;2023-04-12T06:03:21;2.65;;;1.80;;
41799;SDS011;27468;47.460;19.034;2023-04-12T06:05:48;2.97;;;2.05;;
41799;SDS011;27468;47.460;19.034;2023-04-12T06:08:13;3.17;;;1.90;;
41799;SDS011;27468;47.460;19.034;2023-04-12T06:10:39;3.85;;;1.80;;
41799;SDS011;27468;47.460;19.034;2023-04-12T06:13:04;3.40;;;1.85;;
41799;SDS011;27468;47.460;19.034;2023-04-12T06:15:30;3.58;;;2.22;;
41799;SDS011;27468;47.460;19.034;2023-04-12T06:17:56;2.35;;;1.60;;
41799;SDS011;27468;47.460;19.034;2023-04-12T06:20:23;2.50;;;1.80;;
41799;SDS011;27468;47.460;19.034;2023-04-12T06:22:49;2.38;;;1.80;;
41799;SDS011;27468;47.460;19.034;2023-04-12T06:25:14;3.30;;;1.80;;
41799;SDS011;27468;47.460;19.034;2023-04-12T06:27:40;2.63;;;1.42;;
41799;SDS011;27468;47.460;19.034;2023-04-12T06:30:06;3.28;;;2.47;;
41799;SDS011;27468;47.460;19.034;2023-04-12T06:32:32;3.67;;;1.73;;
41799;SDS011;27468;47.460;19.034;2023-04-12T06:34:58;3.35;;;1.80;;
41799;SDS011;27468;47.460;19.034;2023-04-12T06:37:23;1.95;;;1.40;;
41799;SDS011;27468;47.460;19.034;2023-04-12T06:39:48;1.95;;;1.33;;
41799;SDS011;27468;47.460;19.034;2023-04-12T06:42:14;2.03;;;1.50;;
41799;SDS011;27468;47.460;19.034;2023-04-12T06:44:40;2.85;;;1.50;;
41799;SDS011;27468;47.460;19.034;2023-04-12T06:47:08;4.82;;;1.80;;
41799;SDS011;27468;47.460;19.034;2023-04-12T06:49:34;2.78;;;1.42;;
41799;SDS011;27468;47.460;19.034;2023-04-12T06:51:59;3.60;;;1.65;;
41799;SDS011;27468;47.460;19.034;2023-04-12T06:54:25;2.42;;;1.60;;
41799;SDS011;27468;47.460;19.034;2023-04-12T06:56:50;2.80;;;1.58;;
41799;SDS011;27468;47.460;19.034;2023-04-12T06:59:15;2.60;;;1.58;;
41799;SDS011;27468;47.460;19.034;2023-04-12T07:01:41;2.10;;;1.42;;
41799;SDS011;27468;47.460;19.034;2023-04-12T07:04:07;2.33;;;1.40;;
41799;SDS011;27468;47.460;19.034;2023-04-12T07:06:32;2.50;;;1.33;;
41799;SDS011;27468;47.460;19.034;2023-04-12T07:08:58;2.70;;;1.75;;
41799;SDS011;27468;47.460;19.034;2023-04-12T07:11:23;3.13;;;1.25;;
41799;SDS011;27468;47.460;19.034;2023-04-12T07:13:49;3.53;;;1.52;;
41799;SDS011;27468;47.460;19.034;2023-04-12T07:16:15;3.70;;;1.65;;
41799;SDS011;27468;47.460;19.034;2023-04-12T07:18:41;2.63;;;1.42;;
41799;SDS011;27468;47.460;19.034;2023-04-12T07:21:06;1.52;;;1.35;;
41799;SDS011;27468;47.460;19.034;2023-04-12T07:23:32;2.88;;;1.55;;
41799;SDS011;27468;47.460;19.034;2023-04-12T07:25:58;1.80;;;1.20;;
41799;SDS011;27468;47.460;19.034;2023-04-12T07:28:25;3.08;;;1.50;;
41799;SDS011;27468;47.460;19.034;2023-04-12T07:30:50;2.80;;;1.27;;
41799;SDS011;27468;47.460;19.034;2023-04-12T07:33:15;3.05;;;1.92;;
41799;SDS011;27468;47.460;19.034;2023-04-12T07:35:41;3.22;;;1.60;;
41799;SDS011;27468;47.460;19.034;2023-04-12T07:38:06;3.17;;;1.73;;
41799;SDS011;27468;47.460;19.034;2023-04-12T07:40:32;3.42;;;1.83;;
41799;SDS011;27468;47.460;19.034;2023-04-12T07:42:57;4.05;;;1.60;;
41799;SDS011;27468;47.460;19.034;2023-04-12T07:45:23;2.60;;;1.60;;
41799;SDS011;27468;47.460;19.034;2023-04-12T07:47:48;2.40;;;1.60;;
41799;SDS011;27468;47.460;19.034;2023-04-12T07:50:14;3.20;;;1.73;;
41799;SDS011;27468;47.460;19.034;2023-04-12T07:52:40;3.22;;;1.75;;
41799;SDS011;27468;47.460;19.034;2023-04-12T07:55:05;2.20;;;1.90;;
41799;SDS011;27468;47.460;19.034;2023-04-12T07:57:31;4.93;;;2.40;;
41799;SDS011;27468;47.460;19.034;2023-04-12T07:59:56;1.92;;;1.50;;
41799;SDS011;27468;47.460;19.034;2023-04-12T08:02:21;2.40;;;1.45;;
41799;SDS011;27468;47.460;19.034;2023-04-12T08:04:53;1.65;;;1.50;;
41799;SDS011;27468;47.460;19.034;2023-04-12T08:07:19;3.15;;;1.60;;
41799;SDS011;27468;47.460;19.034;2023-04-12T08:09:48;2.30;;;1.70;;
41799;SDS011;27468;47.460;19.034;2023-04-12T08:12:14;2.10;;;1.85;;
41799;SDS011;27468;47.460;19.034;2023-04-12T08:14:40;2.05;;;1.70;;
41799;SDS011;27468;47.460;19.034;2023-04-12T08:17:09;3.75;;;1.90;;
41799;SDS011;27468;47.460;19.034;2023-04-12T08:19:35;2.15;;;1.42;;
41799;SDS011;27468;47.460;19.034;2023-04-12T08:22:01;3.22;;;1.95;;
41799;SDS011;27468;47.460;19.034;2023-04-12T08:24:27;2.22;;;1.75;;
41799;SDS011;27468;47.460;19.034;2023-04-12T08:26:52;3.05;;;2.13;;
41799;SDS011;27468;47.460;19.034;2023-04-12T08:29:17;3.33;;;1.52;;
41799;SDS011;27468;47.460;19.034;2023-04-12T08:31:43;2.38;;;1.75;;
41799;SDS011;27468;47.460;19.034;2023-04-12T08:34:09;2.40;;;1.60;;
41799;SDS011;27468;47.460;19.034;2023-04-12T08:36:35;2.60;;;2.10;;
41799;SDS011;27468;47.460;19.034;2023-04-12T08:39:00;1.83;;;1.50;;
41799;SDS011;27468;47.460;19.034;2023-04-12T08:41:26;2.60;;;1.38;;
41799;SDS011;27468;47.460;19.034;2023-04-12T08:43:52;2.28;;;1.65;;
41799;SDS011;27468;47.460;19.034;2023-04-12T08:46:21;1.95;;;1.60;;
41799;SDS011;27468;47.460;19.034;2023-04-12T08:48:47;3.90;;;1.67;;
41799;SDS011;27468;47.460;19.034;2023-04-12T08:51:16;3.05;;;1.45;;
41799;SDS011;27468;47.460;19.034;2023-04-12T08:53:42;2.08;;;1.52;;
41799;SDS011;27468;47.460;19.034;2023-04-12T08:56:09;2.95;;;1.70;;
41799;SDS011;27468;47.460;19.034;2023-04-12T08:58:39;2.80;;;1.60;;
41799;SDS011;27468;47.460;19.034;2023-04-12T09:01:12;2.13;;;1.67;;
41799;SDS011;27468;47.460;19.034;2023-04-12T09:03:40;3.67;;;2.20;;
41799;SDS011;27468;47.460;19.034;2023-04-12T09:06:06;2.25;;;1.90;;
41799;SDS011;27468;47.460;19.034;2023-04-12T09:08:32;3.08;;;1.60;;
41799;SDS011;27468;47.460;19.034;2023-04-12T09:10:58;2.70;;;1.48;;
41799;SDS011;27468;47.460;19.034;2023-04-12T09:13:33;2.00;;;1.50;;
41799;SDS011;27468;47.460;19.034;2023-04-12T09:15:59;2.92;;;1.65;;
41799;SDS011;27468;47.460;19.034;2023-04-12T09:18:25;2.30;;;1.48;;
41799;SDS011;27468;47.460;19.034;2023-04-12T09:21:04;2.42;;;1.33;;
41799;SDS011;27468;47.460;19.034;2023-04-12T09:23:32;3.80;;;1.90;;
41799;SDS011;27468;47.460;19.034;2023-04-12T09:25:57;3.22;;;2.03;;
41799;SDS011;27468;47.460;19.034;2023-04-12T09:28:23;2.15;;;1.70;;
41799;SDS011;27468;47.460;19.034;2023-04-12T09:30:51;2.67;;;1.55;;
41799;SDS011;27468;47.460;19.034;2023-04-12T09:33:18;3.03;;;1.92;;
41799;SDS011;27468;47.460;19.034;2023-04-12T09:35:44;1.70;;;1.30;;
41799;SDS011;27468;47.460;19.034;2023-04-12T09:38:10;2.00;;;1.35;;
41799;SDS011;27468;47.460;19.034;2023-04-12T09:40:36;2.40;;;1.80;;
41799;SDS011;27468;47.460;19.034;2023-04-12T09:43:02;2.63;;;2.05;;
41799;SDS011;27468;47.460;19.034;2023-04-12T09:45:32;3.75;;;1.90;;
41799;SDS011;27468;47.460;19.034;2023-04-12T09:47:59;1.85;;;1.40;;
41799;SDS011;27468;47.460;19.034;2023-04-12T09:50:28;3.92;;;1.90;;
41799;SDS011;27468;47.460;19.034;2023-04-12T09:52:54;2.33;;;1.55;;
41799;SDS011;27468;47.460;19.034;2023-04-12T09:55:21;2.53;;;2.00;;
41799;SDS011;27468;47.460;19.034;2023-04-12T09:57:49;2.20;;;1.40;;
41799;SDS011;27468;47.460;19.034;2023-04-12T10:00:16;2.83;;;1.95;;
41799;SDS011;27468;47.460;19.034;2023-04-12T10:02:43;2.97;;;1.42;;
41799;SDS011;27468;47.460;19.034;2023-04-12T10:05:14;2.20;;;1.67;;
41799;SDS011;27468;47.460;19.034;2023-04-12T10:07:42;2.95;;;1.90;;
41799;SDS011;27468;47.460;19.034;2023-04-12T10:10:11;3.05;;;1.50;;
41799;SDS011;27468;47.460;19.034;2023-04-12T10:12:38;4.13;;;1.83;;
41799;SDS011;27468;47.460;19.034;2023-04-12T10:15:06;3.55;;;1.40;;
41799;SDS011;27468;47.460;19.034;2023-04-12T10:17:45;3.10;;;1.70;;
41799;SDS011;27468;47.460;19.034;2023-04-12T10:20:18;3.63;;;1.77;;
41799;SDS011;27468;47.460;19.034;2023-04-12T10:22:45;3.10;;;2.03;;
41799;SDS011;27468;47.460;19.034;2023-04-12T10:25:19;2.13;;;1.80;;
41799;SDS011;27468;47.460;19.034;2023-04-12T10:27:46;2.58;;;1.63;;
41799;SDS011;27468;47.460;19.034;2023-04-12T10:30:25;1.92;;;1.48;;
41799;SDS011;27468;47.460;19.034;2023-04-12T10:38:12;3.22;;;1.50;;
41799;SDS011;27468;47.460;19.034;2023-04-12T10:40:38;4.03;;;1.60;;
41799;SDS011;27468;47.460;19.034;2023-04-12T10:43:46;3.28;;;1.40;;
41799;SDS011;27468;47.460;19.034;2023-04-12T10:49:09;2.72;;;1.70;;
41799;SDS011;27468;47.460;19.034;2023-04-12T10:51:35;1.90;;;1.38;;
41799;SDS011;27468;47.460;19.034;2023-04-12T10:56:37;2.88;;;1.48;;
41799;SDS011;27468;47.460;19.034;2023-04-12T10:59:08;2.13;;;1.30;;
41799;SDS011;27468;47.460;19.034;2023-04-12T11:01:35;2.85;;;1.35;;
41799;SDS011;27468;47.460;19.034;2023-04-12T11:04:17;2.55;;;1.58;;
41799;SDS011;27468;47.460;19.034;2023-04-12T11:07:00;1.70;;;1.40;;
41799;SDS011;27468;47.460;19.034;2023-04-12T11:11:57;2.38;;;1.80;;
41799;SDS011;27468;47.460;19.034;2023-04-12T11:19:41;3.03;;;1.48;;
41799;SDS011;27468;47.460;19.034;2023-04-12T11:22:08;4.65;;;1.55;;
41799;SDS011;27468;47.460;19.034;2023-04-12T11:24:59;2.75;;;1.60;;
41799;SDS011;27468;47.460;19.034;2023-04-12T11:27:25;3.38;;;1.63;;
41799;SDS011;27468;47.460;19.034;2023-04-12T11:29:52;2.80;;;1.45;;
41799;SDS011;27468;47.460;19.034;2023-04-12T11:32:23;3.58;;;1.50;;
41799;SDS011;27468;47.460;19.034;2023-04-12T11:34:51;3.88;;;1.95;;
41799;SDS011;27468;47.460;19.034;2023-04-12T11:37:18;2.63;;;1.90;;
41799;SDS011;27468;47.460;19.034;2023-04-12T11:39:45;2.58;;;1.65;;
41799;SDS011;27468;47.460;19.034;2023-04-12T11:42:22;2.80;;;1.50;;
41799;SDS011;27468;47.460;19.034;2023-04-12T11:44:48;3.17;;;1.40;;
41799;SDS011;27468;47.460;19.034;2023-04-12T11:49:45;2.58;;;1.40;;
41799;SDS011;27468;47.460;19.034;2023-04-12T11:52:15;3.47;;;1.40;;
41799;SDS011;27468;47.460;19.034;2023-04-12T11:54:42;2.85;;;1.38;;
41799;SDS011;27468;47.460;19.034;2023-04-12T11:57:12;2.28;;;1.30;;
41799;SDS011;27468;47.460;19.034;2023-04-12T11:59:38;3.22;;;1.30;;
41799;SDS011;27468;47.460;19.034;2023-04-12T12:02:04;1.40;;;1.02;;
41799;SDS011;27468;47.460;19.034;2023-04-12T12:04:32;2.90;;;1.73;;
41799;SDS011;27468;47.460;19.034;2023-04-12T12:06:58;2.67;;;1.80;;
41799;SDS011;27468;47.460;19.034;2023-04-12T12:09:25;2.70;;;1.55;;
41799;SDS011;27468;47.460;19.034;2023-04-12T12:11:51;4.38;;;1.48;;
41799;SDS011;27468;47.460;19.034;2023-04-12T12:14:18;2.67;;;1.33;;
41799;SDS011;27468;47.460;19.034;2023-04-12T12:16:50;3.05;;;1.10;;
41799;SDS011;27468;47.460;19.034;2023-04-12T12:19:39;2.50;;;1.10;;
41799;SDS011;27468;47.460;19.034;2023-04-12T12:24:37;2.80;;;1.10;;
41799;SDS011;27468;47.460;19.034;2023-04-12T12:27:03;1.73;;;1.02;;
41799;SDS011;27468;47.460;19.034;2023-04-12T12:29:35;2.53;;;1.20;;
41799;SDS011;27468;47.460;19.034;2023-04-12T12:32:08;2.08;;;1.38;;
41799;SDS011;27468;47.460;19.034;2023-04-12T12:34:35;2.67;;;1.20;;
41799;SDS011;27468;47.460;19.034;2023-04-12T12:37:01;2.78;;;1.50;;
41799;SDS011;27468;47.460;19.034;2023-04-12T12:39:26;1.80;;;1.10;;
41799;SDS011;27468;47.460;19.034;2023-04-12T12:41:52;2.85;;;1.20;;
41799;SDS011;27468;47.460;19.034;2023-04-12T12:44:20;2.42;;;1.30;;
41799;SDS011;27468;47.460;19.034;2023-04-12T12:46:46;2.78;;;1.10;;
41799;SDS011;27468;47.460;19.034;2023-04-12T12:49:12;1.40;;;1.02;;
41799;SDS011;27468;47.460;19.034;2023-04-12T12:51:37;2.75;;;1.20;;
41799;SDS011;27468;47.460;19.034;2023-04-12T12:54:03;2.58;;;1.10;;
41799;SDS011;27468;47.460;19.034;2023-04-12T12:56:28;2.65;;;1.10;;
41799;SDS011;27468;47.460;19.034;2023-04-12T12:58:54;1.83;;;1.00;;
41799;SDS011;27468;47.460;19.034;2023-04-12T13:01:19;1.83;;;0.90;;
41799;SDS011;27468;47.460;19.034;2023-04-12T13:03:45;2.30;;;1.38;;
41799;SDS011;27468;47.460;19.034;2023-04-12T13:06:10;2.28;;;1.20;;
41799;SDS011;27468;47.460;19.034;2023-04-12T13:08:36;1.73;;;1.30;;
41799;SDS011;27468;47.460;19.034;2023-04-12T13:11:01;3.25;;;1.45;;
41799;SDS011;27468;47.460;19.034;2023-04-12T13:13:27;2.05;;;1.00;;
41799;SDS011;27468;47.460;19.034;2023-04-12T13:15:52;1.52;;;1.02;;
41799;SDS011;27468;47.460;19.034;2023-04-12T13:18:18;3.00;;;1.75;;
41799;SDS011;27468;47.460;19.034;2023-04-12T13:20:44;3.22;;;1.10;;
41799;SDS011;27468;47.460;19.034;2023-04-12T13:23:09;2.33;;;1.00;;
41799;SDS011;27468;47.460;19.034;2023-04-12T13:25:35;1.27;;;0.90;;
41799;SDS011;27468;47.460;19.034;2023-04-12T13:28:00;2.95;;;1.10;;
41799;SDS011;27468;47.460;19.034;2023-04-12T13:30:26;2.22;;;1.00;;
41799;SDS011;27468;47.460;19.034;2023-04-12T13:32:54;1.30;;;0.70;;
41799;SDS011;27468;47.460;19.034;2023-04-12T13:35:20;4.00;;;1.00;;
41799;SDS011;27468;47.460;19.034;2023-04-12T13:37:45;1.92;;;0.98;;
41799;SDS011;27468;47.460;19.034;2023-04-12T13:40:11;2.33;;;1.00;;
41799;SDS011;27468;47.460;19.034;2023-04-12T13:42:37;1.90;;;0.90;;
41799;SDS011;27468;47.460;19.034;2023-04-12T13:45:03;2.28;;;0.77;;
41799;SDS011;27468;47.460;19.034;2023-04-12T13:47:29;3.92;;;1.20;;
41799;SDS011;27468;47.460;19.034;2023-04-12T13:49:55;1.20;;;0.90;;
41799;SDS011;27468;47.460;19.034;2023-04-12T13:52:21;1.45;;;1.00;;
41799;SDS011;27468;47.460;19.034;2023-04-12T13:54:47;3.55;;;0.90;;
41799;SDS011;27468;47.460;19.034;2023-04-12T13:57:12;1.67;;;0.88;;
41799;SDS011;27468;47.460;19.034;2023-04-12T13:59:38;1.60;;;0.82;;
41799;SDS011;27468;47.460;19.034;2023-04-12T14:02:03;1.90;;;0.80;;
41799;SDS011;27468;47.460;19.034;2023-04-12T14:04:29;0.98;;;0.70;;
41799;SDS011;27468;47.460;19.034;2023-04-12T14:06:55;1.40;;;0.77;;
41799;SDS011;27468;47.460;19.034;2023-04-12T14:09:25;1.98;;;0.80;;
41799;SDS011;27468;47.460;19.034;2023-04-12T14:11:51;1.02;;;0.80;;
41799;SDS011;27468;47.460;19.034;2023-04-12T14:14:19;0.93;;;0.80;;
41799;SDS011;27468;47.460;19.034;2023-04-12T14:16:49;1.90;;;0.82;;
41799;SDS011;27468;47.460;19.034;2023-04-12T14:19:17;1.88;;;0.90;;
41799;SDS011;27468;47.460;19.034;2023-04-12T14:21:43;1.90;;;1.17;;
41799;SDS011;27468;47.460;19.034;2023-04-12T14:24:08;1.00;;;0.82;;
41799;SDS011;27468;47.460;19.034;2023-04-12T14:26:34;2.08;;;0.80;;
41799;SDS011;27468;47.460;19.034;2023-04-12T14:29:00;2.97;;;1.10;;
41799;SDS011;27468;47.460;19.034;2023-04-12T14:31:25;1.88;;;0.80;;
41799;SDS011;27468;47.460;19.034;2023-04-12T14:33:51;2.38;;;1.27;;
41799;SDS011;27468;47.460;19.034;2023-04-12T14:36:17;3.33;;;1.20;;
41799;SDS011;27468;47.460;19.034;2023-04-12T14:38:43;1.83;;;0.90;;
41799;SDS011;27468;47.460;19.034;2023-04-12T14:41:08;1.58;;;1.10;;
41799;SDS011;27468;47.460;19.034;2023-04-12T14:43:34;2.38;;;1.00;;
41799;SDS011;27468;47.460;19.034;2023-04-12T14:46:00;1.80;;;1.20;;
41799;SDS011;27468;47.460;19.034;2023-04-12T14:48:25;1.58;;;0.90;;
41799;SDS011;27468;47.460;19.034;2023-04-12T14:50:50;3.75;;;2.22;;
41799;SDS011;27468;47.460;19.034;2023-04-12T14:53:18;1.88;;;1.10;;
41799;SDS011;27468;47.460;19.034;2023-04-12T14:55:45;2.70;;;1.00;;
41799;SDS011;27468;47.460;19.034;2023-04-12T14:58:11;3.53;;;1.13;;
41799;SDS011;27468;47.460;19.034;2023-04-12T15:00:36;2.10;;;0.98;;
41799;SDS011;27468;47.460;19.034;2023-04-12T15:03:02;1.92;;;1.02;;
41799;SDS011;27468;47.460;19.034;2023-04-12T15:05:29;3.28;;;1.20;;
41799;SDS011;27468;47.460;19.034;2023-04-12T15:07:54;2.92;;;1.33;;